createdAt,value
2018-04-24T00:01:47.652Z,90.20
2018-04-24T00:04:15.227Z,90.20
2018-04-24T00:06:42.809Z,90.40
2018-04-24T00:09:10.735Z,90.20
2018-04-24T00:11:38.283Z,90.20
2018-04-24T00:14:05.823Z,90.30
2018-04-24T00:16:33.385Z,90.50
2018-04-24T00:19:00.932Z,90.20
2018-04-24T00:21:28.509Z,90.30
2018-04-24T00:23:56.061Z,90.30
2018-04-24T00:26:23.682Z,90.30
2018-04-24T00:28:51.620Z,90.10
2018-04-24T00:31:19.271Z,90.10
2018-04-24T00:33:46.834Z,90.10
2018-04-24T00:36:14.414Z,90.00
2018-04-24T00:38:41.994Z,89.80
2018-04-24T00:41:09.544Z,89.80
2018-04-24T00:43:37.118Z,89.80
2018-04-24T00:46:04.687Z,89.60
2018-04-24T00:48:32.286Z,89.50
2018-04-24T00:50:59.910Z,89.60
2018-04-24T00:53:39.235Z,90.00
2018-04-24T00:56:06.780Z,89.90
2018-04-24T00:58:34.353Z,90.10
2018-04-24T01:01:01.927Z,90.00
2018-04-24T01:03:29.516Z,89.90
2018-04-24T01:05:57.064Z,90.00
2018-04-24T01:08:24.662Z,90.10
2018-04-24T01:10:52.618Z,90.30
2018-04-24T01:13:20.189Z,90.30
2018-04-24T01:15:47.718Z,90.90
2018-04-24T01:18:15.349Z,90.60
2018-04-24T01:20:42.916Z,90.80
2018-04-24T01:23:10.498Z,90.60
2018-04-24T01:25:38.050Z,90.40
2018-04-24T01:28:05.645Z,90.50
2018-04-24T01:30:33.462Z,90.60
2018-04-24T01:33:01.015Z,90.80
2018-04-24T01:35:28.559Z,90.80
2018-04-24T01:37:56.130Z,90.80
2018-04-24T01:40:23.672Z,90.90
2018-04-24T01:42:51.215Z,90.80
2018-04-24T01:45:18.834Z,90.90
2018-04-24T01:47:46.446Z,91.00
2018-04-24T01:50:13.990Z,91.00
2018-04-24T01:52:41.566Z,91.10
2018-04-24T01:55:09.154Z,91.00
2018-04-24T01:57:36.698Z,91.00
2018-04-24T02:00:04.285Z,91.10
2018-04-24T02:02:31.850Z,91.30
2018-04-24T02:04:59.454Z,91.40
2018-04-24T02:07:26.983Z,91.60
2018-04-24T02:09:54.922Z,91.60
2018-04-24T02:12:22.496Z,91.60
2018-04-24T02:14:50.078Z,91.50
2018-04-24T02:17:17.671Z,91.40
2018-04-24T02:19:45.215Z,91.30
2018-04-24T02:22:12.752Z,91.30
2018-04-24T02:24:40.688Z,91.50
2018-04-24T02:27:08.228Z,91.50
2018-04-24T02:29:35.768Z,91.80
2018-04-24T02:32:03.280Z,91.90
2018-04-24T02:34:31.264Z,92.20
2018-04-24T02:37:03.319Z,92.20
2018-04-24T02:39:30.865Z,92.40
2018-04-24T02:41:58.405Z,92.70
2018-04-24T02:44:26.019Z,92.80
2018-04-24T02:46:53.553Z,92.60
2018-04-24T02:49:21.511Z,92.50
2018-04-24T02:51:49.064Z,92.50
2018-04-24T02:54:16.646Z,92.50
2018-04-24T02:56:44.256Z,92.50
2018-04-24T02:59:11.813Z,92.50
2018-04-24T03:01:39.346Z,92.60
2018-04-24T03:04:06.880Z,92.50
2018-04-24T03:06:34.425Z,92.60
2018-04-24T03:09:02.344Z,92.70
2018-04-24T03:11:29.955Z,92.70
2018-04-24T03:13:57.542Z,92.60
2018-04-24T03:16:25.087Z,92.80
2018-04-24T03:18:52.648Z,92.90
2018-04-24T03:21:20.182Z,92.90
2018-04-24T03:23:47.729Z,93.20
2018-04-24T03:26:15.341Z,93.30
2018-04-24T03:28:42.866Z,93.40
2018-04-24T03:31:10.413Z,93.50
2018-04-24T03:33:39.635Z,93.60
2018-04-24T03:36:09.675Z,93.50
2018-04-24T03:38:37.513Z,93.50
2018-04-24T03:41:05.060Z,93.60
2018-04-24T03:43:32.591Z,93.70
2018-04-24T03:46:00.141Z,94.00
2018-04-24T03:48:27.718Z,94.10
2018-04-24T03:50:55.667Z,94.50
2018-04-24T03:53:23.217Z,94.50
2018-04-24T03:55:50.760Z,94.50
2018-04-24T03:58:18.319Z,94.50
2018-04-24T04:00:45.917Z,94.50
2018-04-24T04:03:13.469Z,94.60
2018-04-24T04:05:41.074Z,94.70
2018-04-24T04:08:08.604Z,94.70
2018-04-24T04:10:36.191Z,94.60
2018-04-24T04:13:03.712Z,94.60
2018-04-24T04:15:31.293Z,94.50
2018-04-24T04:18:10.548Z,94.50
2018-04-24T04:20:49.916Z,94.40
2018-04-24T04:23:30.165Z,94.20
2018-04-24T04:25:58.113Z,94.20
2018-04-24T04:28:25.734Z,94.10
2018-04-24T04:30:53.363Z,94.10
2018-04-24T04:33:20.900Z,94.00
2018-04-24T04:35:48.509Z,93.70
2018-04-24T04:38:16.051Z,93.50
2018-04-24T04:40:43.634Z,93.60
2018-04-24T04:43:11.212Z,93.80
2018-04-24T04:45:38.783Z,93.90
2018-04-24T04:48:06.344Z,94.10
2018-04-24T04:50:33.884Z,94.00
2018-04-24T04:53:01.496Z,93.80
2018-04-24T04:55:29.056Z,93.80
2018-04-24T04:57:56.629Z,93.80
2018-04-24T05:00:24.557Z,93.50
2018-04-24T05:02:52.101Z,93.50
2018-04-24T05:05:19.661Z,93.60
2018-04-24T05:07:47.243Z,93.80
2018-04-24T05:10:14.759Z,93.70
2018-04-24T05:12:42.304Z,93.50
2018-04-24T05:15:09.900Z,93.50
2018-04-24T05:17:37.515Z,93.50
2018-04-24T05:20:15.272Z,93.50
2018-04-24T05:22:42.833Z,93.90
2018-04-24T05:25:10.363Z,94.10
2018-04-24T05:27:37.987Z,94.00
2018-04-24T05:30:05.519Z,93.90
2018-04-24T05:32:33.515Z,93.90
2018-04-24T05:35:01.093Z,93.90
2018-04-24T05:37:28.676Z,93.90
2018-04-24T05:39:56.222Z,93.70
2018-04-24T05:42:23.819Z,93.20
2018-04-24T05:44:51.762Z,92.60
2018-04-24T05:47:19.372Z,92.60
2018-04-24T05:49:46.909Z,92.40
2018-04-24T05:52:14.484Z,92.10
2018-04-24T05:54:42.008Z,91.90
2018-04-24T05:57:09.630Z,91.80
2018-04-24T05:59:54.968Z,91.70
2018-04-24T06:02:22.556Z,91.50
2018-04-24T06:04:50.096Z,91.30
2018-04-24T06:07:17.661Z,91.00
2018-04-24T06:09:45.193Z,90.70
2018-04-24T06:12:13.187Z,90.60
2018-04-24T06:14:40.731Z,90.60
2018-04-24T06:17:08.285Z,90.40
2018-04-24T06:19:35.902Z,90.40
2018-04-24T06:22:03.471Z,90.20
2018-04-24T06:24:31.061Z,90.30
2018-04-24T06:26:58.664Z,89.70
2018-04-24T06:29:26.241Z,88.70
2018-04-24T06:31:53.841Z,89.20
2018-04-24T06:34:21.435Z,89.30
2018-04-24T06:36:48.989Z,89.20
2018-04-24T06:39:16.573Z,88.50
2018-04-24T06:41:44.125Z,88.70
2018-04-24T06:44:11.694Z,87.70
2018-04-24T06:46:39.234Z,87.60
2018-04-24T06:49:06.822Z,87.20
2018-04-24T06:51:34.364Z,87.20
2018-04-24T06:54:01.913Z,86.80
2018-04-24T06:56:29.451Z,86.90
2018-04-24T06:58:56.996Z,86.40
2018-04-24T07:01:24.533Z,86.50
2018-04-24T07:03:52.127Z,86.00
2018-04-24T07:06:19.720Z,85.30
2018-04-24T07:08:47.233Z,84.60
2018-04-24T07:11:14.767Z,84.80
2018-04-24T07:13:42.386Z,85.10
2018-04-24T07:16:09.967Z,83.40
2018-04-24T07:18:37.536Z,82.90
2018-04-24T07:21:05.100Z,81.40
2018-04-24T07:23:33.103Z,81.00
2018-04-24T07:26:00.693Z,80.90
2018-04-24T07:28:28.270Z,80.60
2018-04-24T07:30:55.821Z,81.30
2018-04-24T07:33:23.414Z,81.10
2018-04-24T07:35:50.996Z,82.00
2018-04-24T07:38:18.517Z,82.00
2018-04-24T07:40:46.489Z,81.10
2018-04-24T07:43:14.105Z,81.10
2018-04-24T07:45:41.602Z,80.10
2018-04-24T07:48:09.178Z,79.50
2018-04-24T07:50:36.724Z,80.20
2018-04-24T07:53:10.503Z,78.30
2018-04-24T07:55:38.126Z,79.10
2018-04-24T07:58:05.653Z,79.20
2018-04-24T08:00:33.198Z,79.60
2018-04-24T08:03:00.776Z,79.50
2018-04-24T08:05:28.312Z,79.50
2018-04-24T08:07:55.918Z,78.90
2018-04-24T08:10:23.542Z,78.50
2018-04-24T08:12:51.082Z,79.30
2018-04-24T08:15:18.727Z,77.20
2018-04-24T08:17:46.258Z,76.50
2018-04-24T08:20:13.918Z,76.90
2018-04-24T08:22:41.439Z,75.60
2018-04-24T08:25:08.991Z,75.50
2018-04-24T08:27:36.539Z,77.00
2018-04-24T08:30:04.543Z,76.40
2018-04-24T08:32:32.082Z,76.40
2018-04-24T08:34:59.674Z,76.00
2018-04-24T08:37:27.245Z,75.50
2018-04-24T08:39:54.797Z,75.20
2018-04-24T08:42:22.459Z,74.80
2018-04-24T08:44:50.046Z,74.20
2018-04-24T08:47:17.625Z,76.70
2018-04-24T08:49:45.247Z,75.90
2018-04-24T08:52:12.886Z,76.60
2018-04-24T08:54:40.422Z,77.70
2018-04-24T08:57:08.009Z,76.80
2018-04-24T08:59:35.574Z,75.50
2018-04-24T09:02:03.203Z,76.20
2018-04-24T09:04:32.871Z,75.70
2018-04-24T09:07:00.459Z,75.60
2018-04-24T09:09:28.035Z,75.40
2018-04-24T09:11:55.654Z,74.60
2018-04-24T09:14:23.580Z,73.20
2018-04-24T09:16:51.179Z,73.20
2018-04-24T09:19:19.142Z,72.80
2018-04-24T09:21:46.713Z,72.80
2018-04-24T09:24:14.263Z,72.80
2018-04-24T09:26:41.859Z,74.00
2018-04-24T09:29:09.419Z,72.70
2018-04-24T09:31:42.694Z,73.70
2018-04-24T09:34:10.239Z,73.50
2018-04-24T09:36:37.811Z,72.10
2018-04-24T09:39:06.270Z,74.00
2018-04-24T09:41:34.201Z,75.20
2018-04-24T09:44:01.858Z,75.20
2018-04-24T09:46:29.383Z,73.90
2018-04-24T09:48:57.028Z,72.50
2018-04-24T09:51:24.606Z,73.20
2018-04-24T09:53:52.117Z,71.70
2018-04-24T09:56:19.757Z,72.00
2018-04-24T09:58:47.378Z,71.90
2018-04-24T10:01:14.910Z,72.40
2018-04-24T10:03:42.486Z,72.20
2018-04-24T10:06:10.034Z,71.10
2018-04-24T10:08:39.637Z,70.30
2018-04-24T10:11:07.184Z,70.80
2018-04-24T10:13:35.225Z,69.30
2018-04-24T10:16:02.761Z,69.30
2018-04-24T10:18:30.336Z,70.50
2018-04-24T10:20:57.897Z,70.80
2018-04-24T10:23:25.475Z,69.60
2018-04-24T10:25:53.468Z,69.90
2018-04-24T10:28:21.045Z,69.90
2018-04-24T10:30:48.598Z,71.60
2018-04-24T10:33:16.215Z,69.30
2018-04-24T10:35:43.784Z,68.50
2018-04-24T10:38:11.411Z,68.50
2018-04-24T10:40:38.962Z,70.10
2018-04-24T10:43:06.571Z,71.20
2018-04-24T10:45:34.493Z,69.60
2018-04-24T10:48:02.105Z,69.60
2018-04-24T10:50:29.662Z,69.70
2018-04-24T10:52:57.237Z,67.70
2018-04-24T10:55:24.796Z,69.20
2018-04-24T10:57:52.330Z,67.80
2018-04-24T11:00:19.888Z,68.50
2018-04-24T11:02:47.440Z,68.00
2018-04-24T11:05:14.994Z,68.60
2018-04-24T11:07:42.722Z,68.80
2018-04-24T11:10:10.366Z,67.80
2018-04-24T11:12:37.978Z,67.60
2018-04-24T11:15:05.944Z,69.20
2018-04-24T11:17:33.501Z,69.10
2018-04-24T11:20:01.063Z,68.60
2018-04-24T11:22:28.995Z,68.60
2018-04-24T11:24:56.557Z,68.60
2018-04-24T11:27:24.104Z,70.10
2018-04-24T11:29:51.685Z,69.30
2018-04-24T11:32:19.212Z,68.70
2018-04-24T11:34:46.773Z,67.40
2018-04-24T11:37:14.330Z,68.30
2018-04-24T11:39:41.938Z,68.10
2018-04-24T11:42:09.480Z,67.40
2018-04-24T11:44:37.091Z,67.90
2018-04-24T11:47:04.648Z,67.30
2018-04-24T11:49:32.179Z,67.10
2018-04-24T11:51:59.708Z,67.70
2018-04-24T11:54:27.406Z,69.60
2018-04-24T11:56:55.159Z,68.70
2018-04-24T11:59:22.749Z,66.50
2018-04-24T12:01:50.300Z,66.00
2018-04-24T12:04:17.840Z,65.80
2018-04-24T12:06:45.425Z,68.10
2018-04-24T12:09:13.005Z,65.20
2018-04-24T12:11:40.574Z,65.90
2018-04-24T12:14:08.490Z,66.80
2018-04-24T12:16:36.036Z,66.80
2018-04-24T12:19:03.694Z,66.80
2018-04-24T12:21:31.240Z,66.70
2018-04-24T12:24:00.073Z,67.00
2018-04-24T12:26:27.834Z,66.00
2018-04-24T12:28:55.453Z,65.60
2018-04-24T12:31:23.035Z,65.60
2018-04-24T12:33:50.729Z,66.80
2018-04-24T12:36:18.321Z,67.40
2018-04-24T12:38:46.393Z,67.70
2018-04-24T12:41:14.053Z,66.40
2018-04-24T12:43:43.028Z,65.20
2018-04-24T12:46:10.583Z,65.60
2018-04-24T12:48:39.115Z,66.00
2018-04-24T12:51:07.825Z,66.80
2018-04-24T12:53:36.203Z,67.20
2018-04-24T12:56:04.488Z,67.00
2018-04-24T12:58:33.682Z,67.70
2018-04-24T13:01:02.730Z,67.60
2018-04-24T13:03:35.857Z,68.10
2018-04-24T13:06:06.076Z,67.70
2018-04-24T13:08:34.255Z,65.20
2018-04-24T13:11:01.820Z,64.40
2018-04-24T13:13:29.376Z,63.80
2018-04-24T13:15:56.947Z,62.00
2018-04-24T13:18:24.490Z,61.90
2018-04-24T13:20:52.068Z,62.40
2018-04-24T13:23:19.604Z,61.90
2018-04-24T13:25:47.171Z,61.00
2018-04-24T13:28:14.707Z,59.70
2018-04-24T13:30:42.283Z,58.40
2018-04-24T13:33:09.844Z,57.90
2018-04-24T13:35:37.405Z,58.20
2018-04-24T13:38:05.128Z,58.10
2018-04-24T13:40:32.676Z,59.70
2018-04-24T13:43:00.658Z,58.10
2018-04-24T13:45:28.194Z,58.10
2018-04-24T13:47:56.169Z,58.40
2018-04-24T13:50:23.723Z,58.20
2018-04-24T13:52:51.276Z,57.00
2018-04-24T13:55:18.824Z,57.30
2018-04-24T13:57:46.402Z,57.50
2018-04-24T14:00:13.932Z,56.70
2018-04-24T14:02:46.467Z,55.60
2018-04-24T14:05:14.016Z,56.80
2018-04-24T14:07:41.580Z,55.50
2018-04-24T14:10:09.122Z,57.60
2018-04-24T14:12:37.867Z,59.10
2018-04-24T14:15:22.073Z,56.90
2018-04-24T14:17:49.619Z,58.00
2018-04-24T14:20:23.776Z,59.00
2018-04-24T14:22:57.719Z,59.80
2018-04-24T14:25:25.252Z,60.30
2018-04-24T14:27:52.810Z,61.90
2018-04-24T14:30:20.390Z,59.60
2018-04-24T14:32:48.189Z,57.80
2018-04-24T14:35:15.778Z,55.30
2018-04-24T14:37:43.484Z,56.30
2018-04-24T14:40:11.038Z,56.70
2018-04-24T14:42:38.771Z,57.70
2018-04-24T14:45:06.393Z,54.90
2018-04-24T14:47:45.240Z,53.30
2018-04-24T14:50:13.121Z,54.10
2018-04-24T14:52:41.585Z,55.80
2018-04-24T14:55:09.805Z,52.50
2018-04-24T14:57:37.653Z,51.80
2018-04-24T15:00:05.744Z,53.00
2018-04-24T15:02:33.312Z,53.00
2018-04-24T15:05:00.915Z,56.60
2018-04-24T15:07:28.454Z,57.40
2018-04-24T15:09:56.200Z,54.90
2018-04-24T15:12:25.209Z,53.10
2018-04-24T15:14:53.203Z,51.70
2018-04-24T15:17:20.821Z,50.60
2018-04-24T15:19:48.560Z,54.80
2018-04-24T15:22:17.067Z,56.60
2018-04-24T15:24:44.610Z,54.30
2018-04-24T15:27:12.125Z,54.10
2018-04-24T15:29:39.655Z,53.00
2018-04-24T15:32:07.235Z,52.20
2018-04-24T15:34:35.199Z,53.40
2018-04-24T15:37:02.728Z,53.60
2018-04-24T15:39:30.302Z,53.30
2018-04-24T15:41:57.849Z,53.70
2018-04-24T15:44:25.429Z,53.60
2018-04-24T15:46:52.975Z,53.20
2018-04-24T15:49:20.605Z,53.00
2018-04-24T15:51:48.170Z,52.70
2018-04-24T15:54:15.741Z,51.20
2018-04-24T15:56:43.280Z,52.70
2018-04-24T15:59:10.863Z,54.00
2018-04-24T16:01:38.476Z,54.40
2018-04-24T16:04:06.026Z,55.00
2018-04-24T16:06:33.998Z,58.10
2018-04-24T16:09:01.574Z,58.10
2018-04-24T16:11:29.235Z,57.50
2018-04-24T16:13:56.796Z,58.60
2018-04-24T16:16:24.332Z,59.20
2018-04-24T16:18:51.865Z,59.00
2018-04-24T16:21:19.439Z,58.50
2018-04-24T16:23:47.414Z,57.30
2018-04-24T16:26:14.988Z,57.30
2018-04-24T16:28:42.561Z,57.60
2018-04-24T16:31:10.131Z,55.60
2018-04-24T16:33:37.645Z,54.90
2018-04-24T16:36:05.516Z,55.40
2018-04-24T16:38:33.131Z,57.30
2018-04-24T16:41:00.816Z,57.70
2018-04-24T16:43:28.296Z,58.50
2018-04-24T16:45:55.861Z,59.60
2018-04-24T16:48:23.428Z,59.70
2018-04-24T16:50:51.043Z,59.70
2018-04-24T16:53:18.613Z,60.50
2018-04-24T16:55:46.191Z,60.50
2018-04-24T16:58:13.745Z,60.70
2018-04-24T17:00:41.362Z,60.50
2018-04-24T17:03:08.863Z,61.20
2018-04-24T17:05:36.445Z,61.70
2018-04-24T17:08:03.991Z,62.30
2018-04-24T17:10:31.580Z,62.50
2018-04-24T17:12:59.112Z,62.30
2018-04-24T17:15:26.636Z,62.30
2018-04-24T17:17:54.214Z,61.40
2018-04-24T17:20:27.192Z,61.40
2018-04-24T17:22:56.122Z,61.40
2018-04-24T17:25:24.180Z,61.30
2018-04-24T17:27:51.826Z,61.50
2018-04-24T17:30:19.360Z,61.40
2018-04-24T17:32:46.925Z,61.90
2018-04-24T17:35:14.448Z,62.60
2018-04-24T17:37:42.191Z,63.50
2018-04-24T17:40:09.978Z,63.90
2018-04-24T17:42:37.614Z,64.40
2018-04-24T17:45:05.525Z,64.40
2018-04-24T17:47:34.149Z,66.00
2018-04-24T17:50:01.870Z,66.00
2018-04-24T17:52:30.802Z,66.50
2018-04-24T17:54:58.321Z,66.80
2018-04-24T17:57:25.974Z,67.60
